sensor_id;sensor_type;location;lat;lon;timestamp;pressure;altitude;pressure_sealevel;temperature;humidity
27425;BME280;15244;49.088;11.886;2022-12-26T00:02:23;95801.91;;;10.64;54.75
27425;BME280;15244;49.088;11.886;2022-12-26T00:07:25;95794.13;;;10.62;54.72
27425;BME280;15244;49.088;11.886;2022-12-26T00:12:26;95798.00;;;10.61;55.05
27425;BME280;15244;49.088;11.886;2022-12-26T00:17:29;95790.97;;;10.60;54.79
27425;BME280;15244;49.088;11.886;2022-12-26T00:22:30;95800.34;;;10.59;55.53
27425;BME280;15244;49.088;11.886;2022-12-26T00:27:32;95802.69;;;10.65;55.20
27425;BME280;15244;49.088;11.886;2022-12-26T00:32:34;95796.47;;;10.68;55.57
27425;BME280;15244;49.088;11.886;2022-12-26T00:37:35;95802.34;;;10.70;56.11
27425;BME280;15244;49.088;11.886;2022-12-26T00:42:37;95808.56;;;10.70;56.02
27425;BME280;15244;49.088;11.886;2022-12-26T00:47:39;95807.81;;;10.77;55.84
27425;BME280;15244;49.088;11.886;2022-12-26T00:52:40;95802.38;;;10.80;56.08
27425;BME280;15244;49.088;11.886;2022-12-26T00:57:42;95803.97;;;10.81;56.06
27425;BME280;15244;49.088;11.886;2022-12-26T01:02:44;95809.41;;;10.85;56.00
27425;BME280;15244;49.088;11.886;2022-12-26T01:07:46;95824.63;;;10.90;56.15
27425;BME280;15244;49.088;11.886;2022-12-26T01:13:07;95824.22;;;10.91;56.12
27425;BME280;15244;49.088;11.886;2022-12-26T01:18:09;95834.41;;;10.94;55.88
27425;BME280;15244;49.088;11.886;2022-12-26T01:23:10;95829.72;;;10.98;56.29
27425;BME280;15244;49.088;11.886;2022-12-26T01:28:12;95824.69;;;11.00;56.04
27425;BME280;15244;49.088;11.886;2022-12-26T01:33:14;95818.06;;;11.01;55.56
27425;BME280;15244;49.088;11.886;2022-12-26T01:38:16;95828.63;;;11.06;56.03
27425;BME280;15244;49.088;11.886;2022-12-26T01:43:18;95837.56;;;11.07;55.64
27425;BME280;15244;49.088;11.886;2022-12-26T01:48:21;95835.25;;;11.09;55.50
27425;BME280;15244;49.088;11.886;2022-12-26T01:58:35;95830.56;;;11.10;55.38
27425;BME280;15244;49.088;11.886;2022-12-26T02:03:41;95823.94;;;11.11;55.69
27425;BME280;15244;49.088;11.886;2022-12-26T02:09:03;95831.34;;;11.14;55.73
27425;BME280;15244;49.088;11.886;2022-12-26T02:14:06;95837.22;;;11.16;55.68
27425;BME280;15244;49.088;11.886;2022-12-26T02:35:51;95817.69;;;11.14;55.33
27425;BME280;15244;49.088;11.886;2022-12-26T02:52:01;95820.44;;;11.14;55.50
27425;BME280;15244;49.088;11.886;2022-12-26T02:57:35;95809.53;;;11.10;55.32
27425;BME280;15244;49.088;11.886;2022-12-26T03:03:00;95781.84;;;11.12;55.51
27425;BME280;15244;49.088;11.886;2022-12-26T03:08:33;95787.69;;;11.14;55.52
27425;BME280;15244;49.088;11.886;2022-12-26T03:14:01;95799.41;;;11.14;55.20
27425;BME280;15244;49.088;11.886;2022-12-26T03:19:07;95792.00;;;11.18;55.36
27425;BME280;15244;49.088;11.886;2022-12-26T03:24:13;95794.34;;;11.20;55.50
27425;BME280;15244;49.088;11.886;2022-12-26T03:29:21;95798.25;;;11.22;55.52
27425;BME280;15244;49.088;11.886;2022-12-26T03:34:55;95800.22;;;11.22;55.54
27425;BME280;15244;49.088;11.886;2022-12-26T03:40:07;95798.22;;;11.19;55.07
27425;BME280;15244;49.088;11.886;2022-12-26T03:45:44;95790.41;;;11.14;55.20
27425;BME280;15244;49.088;11.886;2022-12-26T03:51:18;95798.59;;;11.06;54.80
27425;BME280;15244;49.088;11.886;2022-12-26T03:56:47;95812.25;;;11.06;55.17
27425;BME280;15244;49.088;11.886;2022-12-26T04:02:11;95822.34;;;11.06;55.13
27425;BME280;15244;49.088;11.886;2022-12-26T04:07:36;95822.72;;;11.01;55.15
27425;BME280;15244;49.088;11.886;2022-12-26T04:13:00;95811.81;;;10.97;54.98
27425;BME280;15244;49.088;11.886;2022-12-26T04:18:30;95813.34;;;10.98;55.12
27425;BME280;15244;49.088;11.886;2022-12-26T04:23:51;95819.19;;;10.90;55.43
27425;BME280;15244;49.088;11.886;2022-12-26T04:29:12;95831.66;;;10.91;55.52
27425;BME280;15244;49.088;11.886;2022-12-26T04:35:01;95835.59;;;10.97;55.47
27425;BME280;15244;49.088;11.886;2022-12-26T04:40:26;95822.34;;;11.02;55.83
27425;BME280;15244;49.088;11.886;2022-12-26T04:45:48;95831.34;;;11.06;55.54
27425;BME280;15244;49.088;11.886;2022-12-26T04:50:51;95826.69;;;11.14;55.58
27425;BME280;15244;49.088;11.886;2022-12-26T04:55:53;95825.91;;;11.17;55.91
27425;BME280;15244;49.088;11.886;2022-12-26T05:00:54;95813.84;;;11.22;55.96
27425;BME280;15244;49.088;11.886;2022-12-26T05:06:16;95816.59;;;11.25;55.96
27425;BME280;15244;49.088;11.886;2022-12-26T05:11:47;95806.06;;;11.27;56.12
27425;BME280;15244;49.088;11.886;2022-12-26T05:16:48;95803.72;;;11.26;56.03
27425;BME280;15244;49.088;11.886;2022-12-26T05:22:10;95820.09;;;11.26;56.27
27425;BME280;15244;49.088;11.886;2022-12-26T05:27:36;95820.88;;;11.30;56.35
27425;BME280;15244;49.088;11.886;2022-12-26T05:32:57;95829.06;;;11.34;56.26
27425;BME280;15244;49.088;11.886;2022-12-26T05:38:17;95824.41;;;11.38;56.25
27425;BME280;15244;49.088;11.886;2022-12-26T05:43:19;95831.44;;;11.39;56.48
27425;BME280;15244;49.088;11.886;2022-12-26T05:48:20;95834.59;;;11.44;56.07
27425;BME280;15244;49.088;11.886;2022-12-26T05:53:22;95839.28;;;11.47;56.01
27425;BME280;15244;49.088;11.886;2022-12-26T05:58:23;95844.72;;;11.51;56.03
27425;BME280;15244;49.088;11.886;2022-12-26T06:03:25;95833.81;;;11.58;56.26
27425;BME280;15244;49.088;11.886;2022-12-26T06:08:27;95831.09;;;11.62;56.15
27425;BME280;15244;49.088;11.886;2022-12-26T06:13:29;95843.59;;;11.63;55.85
27425;BME280;15244;49.088;11.886;2022-12-26T06:18:30;95842.03;;;11.65;55.85
27425;BME280;15244;49.088;11.886;2022-12-26T06:23:33;95831.09;;;11.69;55.83
27425;BME280;15244;49.088;11.886;2022-12-26T06:28:35;95835.78;;;11.72;55.65
27425;BME280;15244;49.088;11.886;2022-12-26T06:33:37;95844.78;;;11.73;55.64
27425;BME280;15244;49.088;11.886;2022-12-26T06:38:39;95845.97;;;11.75;55.46
27425;BME280;15244;49.088;11.886;2022-12-26T06:43:42;95839.72;;;11.78;55.78
27425;BME280;15244;49.088;11.886;2022-12-26T06:48:44;95830.38;;;11.83;55.52
27425;BME280;15244;49.088;11.886;2022-12-26T06:53:46;95832.72;;;11.88;55.51
27425;BME280;15244;49.088;11.886;2022-12-26T06:58:52;95826.88;;;11.89;55.47
27425;BME280;15244;49.088;11.886;2022-12-26T07:03:54;95833.50;;;11.92;55.26
27425;BME280;15244;49.088;11.886;2022-12-26T07:09:05;95824.16;;;11.93;54.90
27425;BME280;15244;49.088;11.886;2022-12-26T07:14:07;95813.59;;;11.91;54.90
27425;BME280;15244;49.088;11.886;2022-12-26T07:19:11;95817.09;;;11.92;55.18
27425;BME280;15244;49.088;11.886;2022-12-26T07:24:18;95848.72;;;11.97;54.75
27425;BME280;15244;49.088;11.886;2022-12-26T07:29:20;95852.25;;;11.97;55.09
27425;BME280;15244;49.088;11.886;2022-12-26T07:34:22;95851.88;;;11.99;54.89
27425;BME280;15244;49.088;11.886;2022-12-26T07:39:31;95865.53;;;11.99;54.81
27425;BME280;15244;49.088;11.886;2022-12-26T07:44:33;95860.84;;;11.96;55.09
27425;BME280;15244;49.088;11.886;2022-12-26T07:49:34;95857.31;;;11.91;55.33
27425;BME280;15244;49.088;11.886;2022-12-26T07:54:37;95860.41;;;11.83;55.27
27425;BME280;15244;49.088;11.886;2022-12-26T07:59:38;95868.97;;;11.78;55.68
27425;BME280;15244;49.088;11.886;2022-12-26T08:04:40;95881.47;;;11.79;55.55
27425;BME280;15244;49.088;11.886;2022-12-26T08:09:41;95883.78;;;11.73;55.51
27425;BME280;15244;49.088;11.886;2022-12-26T08:14:45;95872.09;;;11.73;55.48
27425;BME280;15244;49.088;11.886;2022-12-26T08:19:48;95850.59;;;11.64;55.85
27425;BME280;15244;49.088;11.886;2022-12-26T08:24:49;95865.84;;;11.65;55.46
27425;BME280;15244;49.088;11.886;2022-12-26T08:29:51;95870.53;;;11.68;55.84
27425;BME280;15244;49.088;11.886;2022-12-26T08:34:52;95874.03;;;11.72;56.02
27425;BME280;15244;49.088;11.886;2022-12-26T08:39:54;95877.56;;;11.80;55.93
27425;BME280;15244;49.088;11.886;2022-12-26T08:44:56;95876.78;;;11.79;55.97
27425;BME280;15244;49.088;11.886;2022-12-26T08:49:58;95886.53;;;11.77;55.96
27425;BME280;15244;49.088;11.886;2022-12-26T08:54:59;95881.47;;;11.79;56.07
27425;BME280;15244;49.088;11.886;2022-12-26T09:00:02;95869.38;;;11.83;55.94
27425;BME280;15244;49.088;11.886;2022-12-26T09:05:05;95864.34;;;11.89;56.12
27425;BME280;15244;49.088;11.886;2022-12-26T09:10:07;95862.78;;;11.91;56.07
27425;BME280;15244;49.088;11.886;2022-12-26T09:15:09;95865.53;;;11.99;56.15
27425;BME280;15244;49.088;11.886;2022-12-26T09:20:10;95860.47;;;12.01;55.83
27425;BME280;15244;49.088;11.886;2022-12-26T09:25:12;95880.75;;;12.07;55.79
27425;BME280;15244;49.088;11.886;2022-12-26T09:30:14;95890.91;;;12.06;55.78
27425;BME280;15244;49.088;11.886;2022-12-26T09:35:16;95895.59;;;12.06;55.60
27425;BME280;15244;49.088;11.886;2022-12-26T09:40:23;95893.63;;;11.99;56.05
27425;BME280;15244;49.088;11.886;2022-12-26T09:45:54;95887.38;;;11.95;55.96
27425;BME280;15244;49.088;11.886;2022-12-26T09:51:00;95881.13;;;11.95;56.53
27425;BME280;15244;49.088;11.886;2022-12-26T09:56:11;95889.72;;;11.97;56.43
27425;BME280;15244;49.088;11.886;2022-12-26T10:01:35;95887.38;;;11.95;56.45
27425;BME280;15244;49.088;11.886;2022-12-26T10:06:40;95892.06;;;11.98;56.74
27425;BME280;15244;49.088;11.886;2022-12-26T10:12:00;95873.72;;;11.99;56.82
27425;BME280;15244;49.088;11.886;2022-12-26T10:17:18;95878.03;;;11.92;56.84
27425;BME280;15244;49.088;11.886;2022-12-26T10:27:53;95876.03;;;11.89;57.21
27425;BME280;15244;49.088;11.886;2022-12-26T10:33:01;95886.94;;;11.79;57.51
27425;BME280;15244;49.088;11.886;2022-12-26T10:38:14;95883.03;;;11.73;57.67
27425;BME280;15244;49.088;11.886;2022-12-26T10:43:21;95872.47;;;11.71;57.61
27425;BME280;15244;49.088;11.886;2022-12-26T10:48:27;95841.63;;;11.63;58.09
27425;BME280;15244;49.088;11.886;2022-12-26T10:53:29;95853.38;;;11.67;58.16
27425;BME280;15244;49.088;11.886;2022-12-26T10:58:35;95847.91;;;11.67;58.14
27425;BME280;15244;49.088;11.886;2022-12-26T11:03:53;95846.72;;;11.68;58.30
27425;BME280;15244;49.088;11.886;2022-12-26T11:08:55;95839.31;;;11.69;58.21
27425;BME280;15244;49.088;11.886;2022-12-26T11:13:59;95846.72;;;11.68;58.39
27425;BME280;15244;49.088;11.886;2022-12-26T11:19:04;95851.03;;;11.73;58.56
27425;BME280;15244;49.088;11.886;2022-12-26T11:34:38;95879.88;;;11.74;58.86
27425;BME280;15244;49.088;11.886;2022-12-26T11:39:49;95892.41;;;11.75;59.20
27425;BME280;15244;49.088;11.886;2022-12-26T11:44:54;95887.69;;;11.79;59.30
27425;BME280;15244;49.088;11.886;2022-12-26T11:50:00;95899.44;;;11.83;59.13
27425;BME280;15244;49.088;11.886;2022-12-26T12:00:23;95915.06;;;11.86;59.45
27425;BME280;15244;49.088;11.886;2022-12-26T12:21:35;95940.84;;;11.92;59.60
27425;BME280;15244;49.088;11.886;2022-12-26T12:31:55;95940.47;;;11.98;59.23
27425;BME280;15244;49.088;11.886;2022-12-26T12:42:28;95919.41;;;12.05;59.29
27425;BME280;15244;49.088;11.886;2022-12-26T12:53:28;95887.00;;;12.07;59.48
27425;BME280;15244;49.088;11.886;2022-12-26T13:04:32;95907.69;;;12.08;59.50
27425;BME280;15244;49.088;11.886;2022-12-26T13:09:41;95891.69;;;12.07;59.22
27425;BME280;15244;49.088;11.886;2022-12-26T13:15:00;95884.66;;;12.06;59.50
27425;BME280;15244;49.088;11.886;2022-12-26T13:20:20;95883.47;;;12.00;59.58
27425;BME280;15244;49.088;11.886;2022-12-26T13:25:38;95893.63;;;11.99;59.47
27425;BME280;15244;49.088;11.886;2022-12-26T13:30:41;95915.88;;;11.98;59.34
27425;BME280;15244;49.088;11.886;2022-12-26T13:36:03;95952.97;;;11.99;59.29
27425;BME280;15244;49.088;11.886;2022-12-26T13:41:05;95910.41;;;12.01;59.39
27425;BME280;15244;49.088;11.886;2022-12-26T13:51:45;95896.38;;;12.06;59.14
27425;BME280;15244;49.088;11.886;2022-12-26T14:07:55;95931.91;;;12.03;59.27
27425;BME280;15244;49.088;11.886;2022-12-26T14:13:05;95946.75;;;12.05;59.11
27425;BME280;15244;49.088;11.886;2022-12-26T14:18:40;95956.50;;;12.06;59.14
27425;BME280;15244;49.088;11.886;2022-12-26T14:24:00;95936.19;;;12.07;59.09
27425;BME280;15244;49.088;11.886;2022-12-26T14:29:23;95919.00;;;12.07;59.23
27425;BME280;15244;49.088;11.886;2022-12-26T14:35:05;95949.88;;;12.11;58.94
27425;BME280;15244;49.088;11.886;2022-12-26T15:00:51;95911.19;;;12.02;58.94
27425;BME280;15244;49.088;11.886;2022-12-26T15:06:00;95921.72;;;12.00;59.05
27425;BME280;15244;49.088;11.886;2022-12-26T15:17:17;95899.03;;;11.85;58.92
27425;BME280;15244;49.088;11.886;2022-12-26T15:33:22;95938.41;;;11.73;59.23
27425;BME280;15244;49.088;11.886;2022-12-26T15:38:41;95932.56;;;11.75;58.85
27425;BME280;15244;49.088;11.886;2022-12-26T15:43:53;95938.03;;;11.75;59.19
27425;BME280;15244;49.088;11.886;2022-12-26T16:00:28;95929.81;;;11.71;59.03
27425;BME280;15244;49.088;11.886;2022-12-26T16:21:27;95918.09;;;11.67;59.46
27425;BME280;15244;49.088;11.886;2022-12-26T16:26:47;95919.69;;;11.68;59.38
27425;BME280;15244;49.088;11.886;2022-12-26T16:31:49;95947.78;;;11.65;59.83
27425;BME280;15244;49.088;11.886;2022-12-26T16:36:51;95951.69;;;11.67;59.49
27425;BME280;15244;49.088;11.886;2022-12-26T16:42:01;95945.41;;;11.67;59.54
27425;BME280;15244;49.088;11.886;2022-12-26T16:47:08;95945.81;;;11.69;59.35
27425;BME280;15244;49.088;11.886;2022-12-26T16:52:30;95960.66;;;11.71;59.22
27425;BME280;15244;49.088;11.886;2022-12-26T16:57:33;95951.69;;;11.71;59.44
27425;BME280;15244;49.088;11.886;2022-12-26T17:02:36;95934.13;;;11.72;59.59
27425;BME280;15244;49.088;11.886;2022-12-26T17:07:43;95944.66;;;11.70;59.68
27425;BME280;15244;49.088;11.886;2022-12-26T17:12:46;95939.56;;;11.65;59.49
27425;BME280;15244;49.088;11.886;2022-12-26T17:17:48;95926.28;;;11.67;59.42
27425;BME280;15244;49.088;11.886;2022-12-26T17:22:54;95931.38;;;11.72;59.51
27425;BME280;15244;49.088;11.886;2022-12-26T17:33:17;95917.75;;;11.76;59.31
27425;BME280;15244;49.088;11.886;2022-12-26T17:38:25;95930.22;;;11.77;59.50
27425;BME280;15244;49.088;11.886;2022-12-26T17:43:36;95929.84;;;11.78;59.71
27425;BME280;15244;49.088;11.886;2022-12-26T17:48:38;95930.22;;;11.73;59.71
27425;BME280;15244;49.088;11.886;2022-12-26T17:53:42;95912.25;;;11.65;59.94
27425;BME280;15244;49.088;11.886;2022-12-26T17:58:43;95922.00;;;11.62;59.79
27425;BME280;15244;49.088;11.886;2022-12-26T18:03:45;95927.00;;;11.46;59.92
27425;BME280;15244;49.088;11.886;2022-12-26T18:08:47;95930.91;;;11.48;60.06
27425;BME280;15244;49.088;11.886;2022-12-26T18:13:48;95946.53;;;11.52;59.93
27425;BME280;15244;49.088;11.886;2022-12-26T18:18:50;95934.47;;;11.53;59.76
27425;BME280;15244;49.088;11.886;2022-12-26T18:23:52;95939.13;;;11.56;59.68
27425;BME280;15244;49.088;11.886;2022-12-26T18:28:54;95929.41;;;11.58;59.86
27425;BME280;15244;49.088;11.886;2022-12-26T18:33:56;95935.66;;;11.62;59.96
27425;BME280;15244;49.088;11.886;2022-12-26T18:38:58;95932.13;;;11.62;59.93
27425;BME280;15244;49.088;11.886;2022-12-26T18:43:59;95930.19;;;11.62;59.78
27425;BME280;15244;49.088;11.886;2022-12-26T18:49:01;95926.66;;;11.62;60.17
27425;BME280;15244;49.088;11.886;2022-12-26T18:54:03;95912.63;;;11.56;60.13
27425;BME280;15244;49.088;11.886;2022-12-26T18:59:04;95910.66;;;11.53;60.00
27425;BME280;15244;49.088;11.886;2022-12-26T19:04:06;95910.25;;;11.51;60.00
27425;BME280;15244;49.088;11.886;2022-12-26T19:09:10;95916.84;;;11.46;59.95
27425;BME280;15244;49.088;11.886;2022-12-26T19:14:18;95917.63;;;11.43;59.95
27425;BME280;15244;49.088;11.886;2022-12-26T19:19:20;95928.56;;;11.40;60.23
27425;BME280;15244;49.088;11.886;2022-12-26T19:24:22;95919.56;;;11.36;60.12
27425;BME280;15244;49.088;11.886;2022-12-26T19:29:24;95928.47;;;11.29;60.16
27425;BME280;15244;49.088;11.886;2022-12-26T19:34:25;95935.50;;;11.26;60.19
27425;BME280;15244;49.088;11.886;2022-12-26T19:39:27;95926.53;;;11.26;60.24
27425;BME280;15244;49.088;11.886;2022-12-26T19:44:28;95946.41;;;11.26;60.51
27425;BME280;15244;49.088;11.886;2022-12-26T19:49:32;95936.28;;;11.27;60.35
27425;BME280;15244;49.088;11.886;2022-12-26T19:54:34;95949.13;;;11.26;60.20
27425;BME280;15244;49.088;11.886;2022-12-26T19:59:35;95940.13;;;11.19;60.45
27425;BME280;15244;49.088;11.886;2022-12-26T20:04:37;95938.94;;;11.13;60.78
27425;BME280;15244;49.088;11.886;2022-12-26T20:09:39;95965.06;;;11.14;60.84
27425;BME280;15244;49.088;11.886;2022-12-26T20:14:41;95965.34;;;10.98;60.94
27425;BME280;15244;49.088;11.886;2022-12-26T20:19:42;96002.78;;;11.01;60.57
27425;BME280;15244;49.088;11.886;2022-12-26T20:24:44;96011.03;;;11.08;60.79
27425;BME280;15244;49.088;11.886;2022-12-26T20:29:47;96027.44;;;11.15;60.30
27425;BME280;15244;49.088;11.886;2022-12-26T20:34:49;96025.00;;;10.99;60.51
27425;BME280;15244;49.088;11.886;2022-12-26T20:39:50;96049.84;;;10.87;60.46
27425;BME280;15244;49.088;11.886;2022-12-26T20:44:52;96052.56;;;10.87;60.21
27425;BME280;15244;49.088;11.886;2022-12-26T20:49:53;96071.50;;;10.69;59.67
27425;BME280;15244;49.088;11.886;2022-12-26T20:54:55;96054.38;;;10.69;59.87
27425;BME280;15244;49.088;11.886;2022-12-26T20:59:57;96069.50;;;10.62;59.25
27425;BME280;15244;49.088;11.886;2022-12-26T21:04:58;96074.94;;;10.62;59.37
27425;BME280;15244;49.088;11.886;2022-12-26T21:10:01;96064.00;;;10.59;59.14
27425;BME280;15244;49.088;11.886;2022-12-26T21:15:03;96042.63;;;10.61;58.83
27425;BME280;15244;49.088;11.886;2022-12-26T21:20:05;96038.38;;;10.67;58.61
27425;BME280;15244;49.088;11.886;2022-12-26T21:25:07;96039.22;;;10.75;58.50
27425;BME280;15244;49.088;11.886;2022-12-26T21:30:09;96042.38;;;10.80;58.37
27425;BME280;15244;49.088;11.886;2022-12-26T21:35:11;96041.25;;;10.85;58.32
27425;BME280;15244;49.088;11.886;2022-12-26T21:40:14;96035.44;;;10.90;58.19
27425;BME280;15244;49.088;11.886;2022-12-26T21:45:16;96045.22;;;10.95;58.41
27425;BME280;15244;49.088;11.886;2022-12-26T21:50:18;96069.78;;;10.95;58.08
27425;BME280;15244;49.088;11.886;2022-12-26T21:55:19;96092.38;;;10.95;58.13
27425;BME280;15244;49.088;11.886;2022-12-26T22:00:26;96094.28;;;10.91;57.75
27425;BME280;15244;49.088;11.886;2022-12-26T22:05:30;96100.50;;;10.88;57.79
27425;BME280;15244;49.088;11.886;2022-12-26T22:10:35;96106.72;;;10.85;57.77
27425;BME280;15244;49.088;11.886;2022-12-26T22:15:56;96119.13;;;10.79;58.22
27425;BME280;15244;49.088;11.886;2022-12-26T22:26:11;96134.47;;;10.57;57.97
27425;BME280;15244;49.088;11.886;2022-12-26T22:31:24;96148.81;;;10.50;58.34
27425;BME280;15244;49.088;11.886;2022-12-26T22:36:27;96162.41;;;10.47;57.96
27425;BME280;15244;49.088;11.886;2022-12-26T22:41:29;96176.31;;;10.38;58.11
27425;BME280;15244;49.088;11.886;2022-12-26T22:46:32;96172.78;;;10.34;58.15
27425;BME280;15244;49.088;11.886;2022-12-26T22:51:34;96177.81;;;10.32;58.30
27425;BME280;15244;49.088;11.886;2022-12-26T22:56:35;96178.56;;;10.29;58.13
27425;BME280;15244;49.088;11.886;2022-12-26T23:01:37;96183.53;;;10.27;58.37
27425;BME280;15244;49.088;11.886;2022-12-26T23:06:39;96189.31;;;10.22;58.17
27425;BME280;15244;49.088;11.886;2022-12-26T23:11:42;96183.41;;;10.16;57.83
27425;BME280;15244;49.088;11.886;2022-12-26T23:17:07;96180.31;;;10.17;57.78
27425;BME280;15244;49.088;11.886;2022-12-26T23:22:11;96179.19;;;10.22;58.10
27425;BME280;15244;49.088;11.886;2022-12-26T23:27:12;96186.63;;;10.25;57.75
27425;BME280;15244;49.088;11.886;2022-12-26T23:32:33;96205.31;;;10.23;57.85
27425;BME280;15244;49.088;11.886;2022-12-26T23:37:36;96218.44;;;10.17;57.71
27425;BME280;15244;49.088;11.886;2022-12-26T23:42:38;96213.66;;;10.07;57.40
27425;BME280;15244;49.088;11.886;2022-12-26T23:47:41;96207.38;;;10.03;57.13
27425;BME280;15244;49.088;11.886;2022-12-26T23:52:43;96212.72;;;9.96;57.12
27425;BME280;15244;49.088;11.886;2022-12-26T23:57:45;96216.91;;;9.90;56.92
